createdAt,value
2017-06-29T04:00:34.812Z,15.88
2017-06-29T04:01:00.334Z,15.94
2017-06-29T04:01:25.866Z,15.92
2017-06-29T04:01:51.385Z,15.92
2017-06-29T04:02:16.868Z,15.94
2017-06-29T04:02:42.355Z,15.91
2017-06-29T04:03:07.807Z,15.91
2017-06-29T04:03:33.277Z,15.9
2017-06-29T04:03:58.749Z,15.94
2017-06-29T04:04:24.250Z,15.92
2017-06-29T04:04:49.731Z,15.91
2017-06-29T04:05:15.156Z,15.9
2017-06-29T04:05:40.622Z,15.95
2017-06-29T04:06:06.115Z,15.86
2017-06-29T04:06:31.625Z,15.91
2017-06-29T04:06:57.112Z,15.97
2017-06-29T04:07:22.525Z,15.94
2017-06-29T04:07:48.005Z,15.97
2017-06-29T04:08:13.474Z,15.92
2017-06-29T04:08:38.936Z,16.05
2017-06-29T04:09:04.481Z,15.94
2017-06-29T04:09:29.905Z,16
2017-06-29T04:09:55.369Z,15.94
2017-06-29T04:10:20.861Z,16
2017-06-29T04:10:46.316Z,15.97
2017-06-29T04:11:11.802Z,15.9
2017-06-29T04:11:37.279Z,16.04
2017-06-29T04:12:02.739Z,16.05
2017-06-29T04:12:28.238Z,16
2017-06-29T04:12:53.816Z,16.02
2017-06-29T04:13:19.207Z,16.04
2017-06-29T04:13:44.703Z,16.09
2017-06-29T04:14:10.175Z,16.12
2017-06-29T04:14:35.753Z,16.01
2017-06-29T04:15:01.166Z,16.13
2017-06-29T04:15:26.665Z,16.17
2017-06-29T04:15:52.182Z,16.08
2017-06-29T04:16:17.603Z,16.15
2017-06-29T04:16:43.060Z,16.16
2017-06-29T04:17:08.539Z,16.21
2017-06-29T04:17:34.047Z,16.17
2017-06-29T04:17:59.573Z,16.2
2017-06-29T04:18:24.999Z,16.17
2017-06-29T04:18:50.488Z,16.12
2017-06-29T04:19:15.991Z,16.09
2017-06-29T04:19:41.458Z,16.16
2017-06-29T04:20:06.987Z,16.16
2017-06-29T04:20:32.448Z,16.15
2017-06-29T04:20:57.942Z,16.23
2017-06-29T04:21:23.417Z,16.16
2017-06-29T04:21:48.948Z,16.17
2017-06-29T04:22:14.414Z,16.2
2017-06-29T04:22:39.877Z,16.17
2017-06-29T04:23:05.365Z,16.2
2017-06-29T04:23:30.829Z,16.1
2017-06-29T04:23:56.345Z,16.12
2017-06-29T04:24:21.795Z,16.16
2017-06-29T04:24:47.320Z,16.23
2017-06-29T04:25:12.818Z,16.15
2017-06-29T04:25:38.241Z,16.21
2017-06-29T04:26:03.702Z,16.2
2017-06-29T04:26:29.193Z,16.16
2017-06-29T04:26:54.642Z,16.13
2017-06-29T04:27:20.109Z,16.2
2017-06-29T04:27:45.572Z,16.17
2017-06-29T04:28:11.130Z,16.16
2017-06-29T04:28:36.580Z,16.2
2017-06-29T04:29:02.053Z,16.24
2017-06-29T04:29:27.500Z,16.24
2017-06-29T04:29:53.009Z,16.12
2017-06-29T04:30:18.454Z,16.21
2017-06-29T04:30:43.952Z,16.24
2017-06-29T04:31:09.381Z,16.32
2017-06-29T04:31:34.861Z,16.32
2017-06-29T04:32:00.387Z,16.31
2017-06-29T04:32:25.992Z,16.16
2017-06-29T04:32:51.506Z,16.31
2017-06-29T04:33:16.927Z,16.2
2017-06-29T04:33:42.443Z,16.31
2017-06-29T04:34:07.908Z,16.26
2017-06-29T04:34:33.367Z,16.24
2017-06-29T04:34:58.789Z,16.21
2017-06-29T04:35:24.252Z,16.26
2017-06-29T04:35:49.724Z,16.21
2017-06-29T04:36:15.247Z,16.21
2017-06-29T04:36:40.686Z,16.26
2017-06-29T04:37:06.132Z,16.32
2017-06-29T04:37:31.652Z,16.28
2017-06-29T04:37:57.091Z,16.21
2017-06-29T04:38:22.609Z,16.26
2017-06-29T04:38:48.058Z,16.36
2017-06-29T04:39:13.586Z,16.26
2017-06-29T04:39:39.001Z,16.24
2017-06-29T04:40:04.470Z,16.23
2017-06-29T04:40:29.983Z,16.32
2017-06-29T04:40:55.424Z,16.26
2017-06-29T04:41:20.897Z,16.21
2017-06-29T04:41:46.348Z,16.28
2017-06-29T04:42:11.833Z,16.29
2017-06-29T04:42:37.284Z,16.28
2017-06-29T04:43:02.747Z,16.26
2017-06-29T04:43:28.282Z,16.28
2017-06-29T04:43:53.680Z,16.32
2017-06-29T04:44:19.139Z,16.23
2017-06-29T04:44:44.629Z,16.21
2017-06-29T04:45:10.146Z,16.2
2017-06-29T04:45:35.605Z,16.26
2017-06-29T04:46:01.112Z,16.26
2017-06-29T04:46:26.553Z,16.26
2017-06-29T04:46:52.024Z,16.35
2017-06-29T04:47:17.484Z,16.28
2017-06-29T04:47:42.950Z,16.26
2017-06-29T04:48:08.447Z,16.29
2017-06-29T04:48:33.919Z,16.24
2017-06-29T04:48:59.407Z,16.28
2017-06-29T04:49:24.974Z,16.17
2017-06-29T04:49:50.444Z,16.32
2017-06-29T04:50:15.871Z,16.24
2017-06-29T04:50:41.337Z,16.28
2017-06-29T04:51:06.827Z,16.32
2017-06-29T04:51:32.301Z,16.35
2017-06-29T04:51:57.821Z,16.28
2017-06-29T04:52:23.276Z,16.23
2017-06-29T04:52:48.756Z,16.21
2017-06-29T04:53:14.199Z,16.31
2017-06-29T04:53:39.655Z,16.32
2017-06-29T04:54:05.112Z,16.28
2017-06-29T04:54:30.611Z,16.26
2017-06-29T04:54:56.097Z,16.2
2017-06-29T04:55:21.566Z,16.28
2017-06-29T04:55:47.021Z,16.2
2017-06-29T04:56:12.513Z,16.26
2017-06-29T04:56:37.984Z,16.28
2017-06-29T04:57:03.469Z,16.26
2017-06-29T04:57:28.949Z,16.32
2017-06-29T04:57:54.437Z,16.42
2017-06-29T04:58:19.887Z,16.35
2017-06-29T04:58:45.409Z,16.36
2017-06-29T04:59:10.885Z,16.39
2017-06-29T04:59:36.363Z,16.41
2017-06-29T05:00:01.833Z,16.36
2017-06-29T05:00:27.275Z,16.35
2017-06-29T05:00:52.748Z,16.42
2017-06-29T05:01:18.242Z,16.42
2017-06-29T05:01:43.718Z,16.42
2017-06-29T05:02:09.187Z,16.43
2017-06-29T05:02:34.638Z,16.39
2017-06-29T05:03:00.105Z,16.42
2017-06-29T05:03:25.630Z,16.42
2017-06-29T05:03:51.079Z,16.49
2017-06-29T05:04:16.552Z,16.53
2017-06-29T05:04:42.088Z,16.5
2017-06-29T05:05:07.598Z,16.42
2017-06-29T05:05:32.996Z,16.46
2017-06-29T05:05:58.461Z,16.5
2017-06-29T05:06:23.933Z,16.56
2017-06-29T05:06:49.423Z,16.49
2017-06-29T05:07:14.874Z,16.56
2017-06-29T05:07:40.346Z,16.53
2017-06-29T05:08:05.814Z,16.53
2017-06-29T05:08:31.290Z,16.58
2017-06-29T05:08:57.045Z,16.56
2017-06-29T05:09:22.447Z,16.53
2017-06-29T05:09:47.950Z,16.56
2017-06-29T05:10:13.386Z,16.6
2017-06-29T05:10:38.887Z,16.58
2017-06-29T05:11:04.348Z,16.61
2017-06-29T05:11:30.087Z,16.61
2017-06-29T05:11:55.510Z,16.65
2017-06-29T05:12:20.968Z,16.74
2017-06-29T05:12:46.446Z,16.66
2017-06-29T05:13:11.943Z,16.6
2017-06-29T05:13:37.395Z,16.64
2017-06-29T05:14:02.881Z,16.71
2017-06-29T05:14:28.346Z,16.65
2017-06-29T05:14:53.793Z,16.64
2017-06-29T05:15:19.269Z,16.71
2017-06-29T05:15:44.781Z,16.66
2017-06-29T05:16:10.252Z,16.65
2017-06-29T05:16:35.747Z,16.66
2017-06-29T05:17:01.237Z,16.74
2017-06-29T05:17:26.852Z,16.75
2017-06-29T05:17:52.322Z,16.72
2017-06-29T05:18:17.795Z,16.81
2017-06-29T05:18:43.261Z,16.71
2017-06-29T05:19:08.726Z,16.83
2017-06-29T05:19:34.196Z,16.81
2017-06-29T05:19:59.646Z,16.84
2017-06-29T05:20:25.135Z,16.89
2017-06-29T05:20:50.596Z,16.81
2017-06-29T05:21:16.097Z,16.86
2017-06-29T05:21:41.589Z,16.84
2017-06-29T05:22:07.119Z,16.87
2017-06-29T05:22:32.603Z,16.86
2017-06-29T05:22:58.086Z,16.83
2017-06-29T05:23:23.561Z,16.86
2017-06-29T05:23:49.046Z,16.9
2017-06-29T05:24:14.514Z,16.87
2017-06-29T05:24:40.019Z,16.83
2017-06-29T05:25:05.510Z,16.87
2017-06-29T05:25:30.988Z,16.86
2017-06-29T05:25:56.488Z,16.86
2017-06-29T05:26:21.942Z,16.83
2017-06-29T05:26:47.425Z,16.79
2017-06-29T05:27:12.894Z,16.84
2017-06-29T05:27:38.385Z,16.9
2017-06-29T05:28:03.862Z,16.96
2017-06-29T05:28:29.356Z,16.91
2017-06-29T05:28:54.833Z,16.97
2017-06-29T05:29:20.330Z,16.9
2017-06-29T05:29:45.773Z,17.01
2017-06-29T05:30:11.274Z,17.06
2017-06-29T05:30:36.784Z,17.08
2017-06-29T05:31:02.283Z,17.08
2017-06-29T05:31:27.762Z,17.01
2017-06-29T05:31:53.267Z,17.09
2017-06-29T05:32:18.699Z,17.09
2017-06-29T05:32:44.227Z,17.09
2017-06-29T05:33:09.628Z,17.19
2017-06-29T05:33:35.091Z,17.14
2017-06-29T05:34:00.560Z,17.27
2017-06-29T05:34:26.052Z,17.16
2017-06-29T05:34:51.520Z,17.2
2017-06-29T05:35:17.023Z,17.26
2017-06-29T05:35:42.463Z,17.29
2017-06-29T05:36:07.903Z,17.39
2017-06-29T05:36:33.499Z,17.36
2017-06-29T05:36:58.975Z,17.33
2017-06-29T05:37:24.704Z,17.41
2017-06-29T05:37:50.179Z,17.46
2017-06-29T05:38:15.643Z,17.48
2017-06-29T05:38:41.250Z,17.46
2017-06-29T05:39:06.637Z,17.52
2017-06-29T05:39:32.165Z,17.54
2017-06-29T05:39:57.622Z,17.46
2017-06-29T05:40:23.102Z,17.51
2017-06-29T05:40:48.531Z,17.49
2017-06-29T05:41:13.997Z,17.48
2017-06-29T05:41:39.479Z,17.52
2017-06-29T05:42:04.956Z,17.54
2017-06-29T05:42:30.463Z,17.54
2017-06-29T05:42:55.973Z,17.64
2017-06-29T05:43:21.486Z,17.59
2017-06-29T05:43:46.931Z,17.68
2017-06-29T05:44:12.385Z,17.65
2017-06-29T05:44:37.852Z,17.64
2017-06-29T05:45:03.408Z,17.68
2017-06-29T05:45:28.801Z,17.74
2017-06-29T05:45:54.282Z,17.65
2017-06-29T05:46:19.765Z,17.71
2017-06-29T05:46:45.223Z,17.67
2017-06-29T05:47:10.681Z,17.72
2017-06-29T05:47:36.234Z,17.74
2017-06-29T05:48:01.689Z,17.76
2017-06-29T05:48:27.176Z,17.74
2017-06-29T05:48:52.671Z,17.78
2017-06-29T05:49:18.175Z,17.82
2017-06-29T05:49:43.775Z,17.85
2017-06-29T05:50:09.150Z,17.78
2017-06-29T05:50:34.622Z,17.85
2017-06-29T05:51:00.113Z,17.85
2017-06-29T05:51:25.588Z,17.79
2017-06-29T05:51:51.051Z,17.8
2017-06-29T05:52:16.529Z,17.86
2017-06-29T05:52:41.998Z,17.87
2017-06-29T05:53:07.469Z,17.89
2017-06-29T05:53:32.900Z,17.9
2017-06-29T05:53:58.382Z,17.9
2017-06-29T05:54:23.895Z,17.83
2017-06-29T05:54:49.319Z,17.89
2017-06-29T05:55:14.799Z,17.92
2017-06-29T05:55:40.288Z,17.9
2017-06-29T05:56:05.711Z,17.94
2017-06-29T05:56:31.172Z,17.89
2017-06-29T05:56:56.667Z,17.92
2017-06-29T05:57:22.125Z,17.86
2017-06-29T05:57:47.618Z,17.89
2017-06-29T05:58:13.068Z,17.98
2017-06-29T05:58:38.701Z,17.97
2017-06-29T05:59:04.286Z,18
2017-06-29T05:59:29.705Z,18.01
2017-06-29T05:59:55.169Z,17.94
2017-06-29T06:00:20.656Z,17.98
2017-06-29T06:00:46.103Z,18.07
2017-06-29T06:01:11.586Z,17.97
2017-06-29T06:01:37.068Z,18.07
2017-06-29T06:02:02.532Z,18.1
2017-06-29T06:02:28.039Z,18.05
2017-06-29T06:02:53.502Z,18.03
2017-06-29T06:03:19.028Z,18.1
2017-06-29T06:03:44.490Z,18.04
2017-06-29T06:04:09.972Z,18.19
2017-06-29T06:04:35.478Z,18.25
2017-06-29T06:05:00.931Z,18.22
2017-06-29T06:05:26.404Z,18.19
2017-06-29T06:05:51.858Z,18.1
2017-06-29T06:06:17.340Z,18.28
2017-06-29T06:06:42.845Z,18.19
2017-06-29T06:07:08.322Z,18.25
2017-06-29T06:07:33.829Z,18.22
2017-06-29T06:07:59.336Z,18.2
2017-06-29T06:08:24.840Z,18.22
2017-06-29T06:08:50.335Z,18.25
2017-06-29T06:09:15.777Z,18.2
2017-06-29T06:09:41.259Z,18.15
2017-06-29T06:10:06.742Z,18.18
2017-06-29T06:10:32.260Z,18.22
2017-06-29T06:10:57.725Z,18.13
2017-06-29T06:11:23.227Z,18.2
2017-06-29T06:11:48.672Z,18.22
2017-06-29T06:12:14.184Z,18.26
2017-06-29T06:12:39.651Z,18.1
2017-06-29T06:13:05.118Z,18.23
2017-06-29T06:13:30.604Z,18.23
2017-06-29T06:13:56.079Z,18.22
2017-06-29T06:14:21.702Z,18.26
2017-06-29T06:14:47.205Z,18.23
2017-06-29T06:15:12.678Z,18.08
2017-06-29T06:15:38.178Z,18.25
2017-06-29T06:16:03.638Z,18.19
2017-06-29T06:16:29.115Z,18.25
2017-06-29T06:16:54.613Z,18.28
2017-06-29T06:17:20.113Z,18.18
2017-06-29T06:17:45.560Z,18.2
2017-06-29T06:18:11.100Z,18.22
2017-06-29T06:18:36.527Z,18.2
2017-06-29T06:19:02.039Z,18.19
2017-06-29T06:19:27.476Z,18.15
2017-06-29T06:19:53.004Z,18.13
2017-06-29T06:20:18.439Z,18.18
2017-06-29T06:20:43.910Z,18.2
2017-06-29T06:21:09.436Z,18.19
2017-06-29T06:21:34.898Z,18.25
2017-06-29T06:22:00.364Z,18.29
2017-06-29T06:22:25.823Z,18.34
2017-06-29T06:22:51.303Z,18.31
2017-06-29T06:23:16.754Z,18.34
2017-06-29T06:23:42.237Z,18.4
2017-06-29T06:24:07.754Z,18.43
2017-06-29T06:24:33.196Z,18.52
2017-06-29T06:24:58.637Z,18.53
2017-06-29T06:25:24.117Z,18.65
2017-06-29T06:25:49.641Z,18.62
2017-06-29T06:26:15.035Z,18.77
2017-06-29T06:26:40.487Z,18.71
2017-06-29T06:27:05.999Z,18.75
2017-06-29T06:27:31.444Z,18.81
2017-06-29T06:27:56.916Z,18.93
2017-06-29T06:28:22.412Z,18.96
2017-06-29T06:28:47.869Z,18.96
2017-06-29T06:29:13.333Z,18.9
2017-06-29T06:29:38.824Z,19
2017-06-29T06:30:04.317Z,19
2017-06-29T06:30:29.762Z,19.08
2017-06-29T06:30:55.235Z,19.11
2017-06-29T06:31:20.713Z,19.22
2017-06-29T06:31:46.210Z,19.18
2017-06-29T06:32:11.677Z,19.31
2017-06-29T06:32:37.163Z,19.27
2017-06-29T06:33:02.646Z,19.31
2017-06-29T06:33:28.134Z,19.4
2017-06-29T06:33:53.598Z,19.37
2017-06-29T06:34:19.063Z,19.45
2017-06-29T06:34:44.569Z,19.49
2017-06-29T06:35:10.053Z,19.56
2017-06-29T06:35:35.497Z,19.59
2017-06-29T06:36:00.980Z,19.58
2017-06-29T06:36:26.460Z,19.66
2017-06-29T06:36:51.930Z,19.63
2017-06-29T06:37:17.423Z,19.71
2017-06-29T06:37:42.865Z,19.71
2017-06-29T06:38:08.325Z,19.73
2017-06-29T06:38:33.801Z,19.79
2017-06-29T06:38:59.264Z,19.84
2017-06-29T06:39:24.722Z,19.92
2017-06-29T06:39:50.185Z,19.99
2017-06-29T06:40:15.664Z,19.92
2017-06-29T06:40:41.132Z,20.02
2017-06-29T06:41:06.577Z,20.06
2017-06-29T06:41:32.070Z,20.03
2017-06-29T06:41:57.568Z,20.11
2017-06-29T06:42:23.024Z,20.11
2017-06-29T06:42:48.497Z,20.18
2017-06-29T06:43:13.973Z,20.21
2017-06-29T06:43:39.433Z,20.22
2017-06-29T06:44:04.913Z,20.21
2017-06-29T06:44:30.418Z,20.29
2017-06-29T06:44:55.829Z,20.31
2017-06-29T06:45:21.280Z,20.37
2017-06-29T06:45:46.796Z,20.31
2017-06-29T06:46:12.210Z,20.25
2017-06-29T06:46:37.692Z,20.31
2017-06-29T06:47:03.222Z,20.4
2017-06-29T06:47:28.625Z,20.39
2017-06-29T06:47:54.079Z,20.37
2017-06-29T06:48:19.582Z,20.37
2017-06-29T06:48:45.284Z,20.36
2017-06-29T06:49:10.756Z,20.48
2017-06-29T06:49:36.283Z,20.5
2017-06-29T06:50:01.746Z,20.44
2017-06-29T06:50:27.280Z,20.52
2017-06-29T06:50:52.742Z,20.5
2017-06-29T06:51:18.218Z,20.48
2017-06-29T06:51:43.669Z,20.47
2017-06-29T06:52:09.116Z,20.58
2017-06-29T06:52:34.600Z,20.56
2017-06-29T06:53:00.059Z,20.59
2017-06-29T06:53:25.513Z,20.65
2017-06-29T06:53:51.007Z,20.6
2017-06-29T06:54:16.470Z,20.66
2017-06-29T06:54:41.954Z,20.67
2017-06-29T06:55:07.418Z,20.7
2017-06-29T06:55:32.872Z,20.74
2017-06-29T06:55:58.325Z,20.74
2017-06-29T06:56:23.805Z,20.72
2017-06-29T06:56:49.322Z,20.77
2017-06-29T06:57:14.766Z,20.72
2017-06-29T06:57:40.252Z,20.7
2017-06-29T06:58:05.724Z,20.67
2017-06-29T06:58:31.196Z,20.6
2017-06-29T06:58:56.670Z,20.67
2017-06-29T06:59:22.122Z,20.69
2017-06-29T06:59:47.581Z,20.65
2017-06-29T07:00:13.062Z,20.63
2017-06-29T07:00:38.506Z,20.66
2017-06-29T07:01:04.021Z,20.62
2017-06-29T07:01:29.477Z,20.55
2017-06-29T07:01:54.908Z,20.51
2017-06-29T07:02:20.405Z,20.44
2017-06-29T07:02:45.887Z,20.47
2017-06-29T07:03:11.355Z,20.39
2017-06-29T07:03:36.832Z,20.37
2017-06-29T07:04:02.313Z,20.37
2017-06-29T07:04:27.781Z,20.39
2017-06-29T07:04:53.280Z,20.32
2017-06-29T07:05:18.720Z,20.24
2017-06-29T07:05:44.188Z,20.25
2017-06-29T07:06:09.682Z,20.34
2017-06-29T07:06:35.140Z,20.28
2017-06-29T07:07:00.593Z,20.25
2017-06-29T07:07:26.031Z,20.29
2017-06-29T07:07:51.482Z,20.25
2017-06-29T07:08:16.950Z,20.24
2017-06-29T07:08:42.470Z,20.31
2017-06-29T07:09:07.929Z,20.32
2017-06-29T07:09:33.399Z,20.28
2017-06-29T07:09:58.866Z,20.34
2017-06-29T07:10:24.336Z,20.41
2017-06-29T07:10:49.828Z,20.43
2017-06-29T07:11:15.245Z,20.4
2017-06-29T07:11:40.702Z,20.37
2017-06-29T07:12:06.174Z,20.34
2017-06-29T07:12:31.636Z,20.39
2017-06-29T07:12:57.121Z,20.29
2017-06-29T07:13:22.589Z,20.32
2017-06-29T07:13:48.054Z,20.26
2017-06-29T07:14:13.542Z,20.28
2017-06-29T07:14:39.024Z,20.25
2017-06-29T07:15:04.479Z,20.32
2017-06-29T07:15:29.969Z,20.29
2017-06-29T07:15:55.410Z,20.29
2017-06-29T07:16:20.885Z,20.31
2017-06-29T07:16:46.357Z,20.32
2017-06-29T07:17:11.846Z,20.39
2017-06-29T07:17:37.305Z,20.32
2017-06-29T07:18:02.772Z,20.29
2017-06-29T07:18:28.249Z,20.28
2017-06-29T07:18:53.698Z,20.26
2017-06-29T07:19:19.181Z,20.26
2017-06-29T07:19:44.653Z,20.26
2017-06-29T07:20:10.097Z,20.28
2017-06-29T07:20:35.577Z,20.28
2017-06-29T07:21:01.010Z,20.25
2017-06-29T07:21:26.509Z,20.19
2017-06-29T07:21:51.999Z,20.16
2017-06-29T07:22:17.488Z,20.14
2017-06-29T07:22:42.966Z,20.16
2017-06-29T07:23:08.441Z,20.14
2017-06-29T07:23:33.913Z,20.16
2017-06-29T07:23:59.386Z,20.13
2017-06-29T07:24:24.820Z,20.18
2017-06-29T07:24:50.288Z,20.19
2017-06-29T07:25:15.865Z,20.16
2017-06-29T07:25:41.370Z,20.22
2017-06-29T07:26:06.825Z,20.21
2017-06-29T07:26:32.319Z,20.19
2017-06-29T07:26:57.776Z,20.11
2017-06-29T07:27:23.252Z,20.16
2017-06-29T07:27:48.747Z,20.13
2017-06-29T07:28:14.201Z,20.19
2017-06-29T07:28:39.732Z,20.13
2017-06-29T07:29:05.179Z,20.19
2017-06-29T07:29:30.641Z,20.18
2017-06-29T07:29:56.107Z,20.19
2017-06-29T07:30:21.631Z,20.24
2017-06-29T07:30:47.019Z,20.26
2017-06-29T07:31:12.495Z,20.18
2017-06-29T07:31:37.980Z,20.18
2017-06-29T07:32:03.457Z,20.25
2017-06-29T07:32:28.946Z,20.26
2017-06-29T07:32:54.416Z,20.21
2017-06-29T07:33:19.927Z,20.26
2017-06-29T07:33:45.404Z,20.19
2017-06-29T07:34:10.905Z,20.18
2017-06-29T07:34:36.392Z,20.11
2017-06-29T07:35:01.893Z,20.21
2017-06-29T07:35:27.337Z,20.21
2017-06-29T07:35:52.792Z,20.16
2017-06-29T07:36:18.270Z,20.19
2017-06-29T07:36:43.743Z,20.18
2017-06-29T07:37:09.190Z,20.19
2017-06-29T07:37:34.663Z,20.18
2017-06-29T07:38:00.162Z,20.14
2017-06-29T07:38:25.647Z,20.16
2017-06-29T07:38:51.082Z,20.19
2017-06-29T07:39:16.550Z,20.14
2017-06-29T07:39:42.059Z,20.14
2017-06-29T07:40:07.483Z,20.18
2017-06-29T07:40:32.959Z,20.16
2017-06-29T07:40:58.431Z,20.16
2017-06-29T07:41:23.890Z,20.26
2017-06-29T07:41:49.364Z,20.26
2017-06-29T07:42:14.833Z,20.21
2017-06-29T07:42:40.329Z,20.28
2017-06-29T07:43:05.779Z,20.18
2017-06-29T07:43:31.238Z,20.14
2017-06-29T07:43:56.692Z,20.18
2017-06-29T07:44:22.204Z,20.19
2017-06-29T07:44:47.662Z,20.16
2017-06-29T07:45:13.128Z,20.14
2017-06-29T07:45:38.593Z,20.16
2017-06-29T07:46:04.055Z,20.16
2017-06-29T07:46:29.530Z,20.19
2017-06-29T07:46:55.008Z,20.19
2017-06-29T07:47:20.430Z,20.16
2017-06-29T07:47:45.895Z,20.18
2017-06-29T07:48:11.399Z,20.19
2017-06-29T07:48:36.839Z,20.18
2017-06-29T07:49:02.306Z,20.18
2017-06-29T07:49:27.793Z,20.16
2017-06-29T07:49:53.243Z,20.16
2017-06-29T07:50:18.716Z,20.18
2017-06-29T07:50:44.188Z,20.19
2017-06-29T07:51:09.661Z,20.14
2017-06-29T07:51:35.120Z,20.14
2017-06-29T07:52:00.587Z,20.09
2017-06-29T07:52:26.035Z,20.19
2017-06-29T07:52:51.507Z,20.13
2017-06-29T07:53:16.978Z,20.13
2017-06-29T07:53:42.429Z,20.14
2017-06-29T07:54:07.900Z,20.07
2017-06-29T07:54:33.374Z,20.1
2017-06-29T07:54:58.839Z,20.1
2017-06-29T07:55:24.285Z,20.07
2017-06-29T07:55:49.797Z,20.06
2017-06-29T07:56:15.228Z,20.04
2017-06-29T07:56:40.677Z,20.06
2017-06-29T07:57:06.165Z,19.96
2017-06-29T07:57:31.641Z,19.99
2017-06-29T07:57:57.104Z,19.96
2017-06-29T07:58:22.570Z,20
2017-06-29T07:58:48.040Z,19.99
2017-06-29T07:59:13.533Z,20.02
2017-06-29T07:59:38.985Z,20
2017-06-29T08:00:04.455Z,19.96
2017-06-29T08:00:29.919Z,20
2017-06-29T08:00:55.395Z,19.95
2017-06-29T08:01:20.844Z,19.99
2017-06-29T08:01:46.357Z,19.99
2017-06-29T08:02:11.782Z,20.03
2017-06-29T08:02:37.245Z,19.95
2017-06-29T08:03:02.711Z,19.96
2017-06-29T08:03:28.204Z,19.99
2017-06-29T08:03:53.685Z,20.03
2017-06-29T08:04:19.153Z,19.99
2017-06-29T08:04:44.617Z,19.99
2017-06-29T08:05:10.112Z,20
2017-06-29T08:05:35.543Z,19.99
2017-06-29T08:06:01.024Z,19.96
2017-06-29T08:06:26.463Z,19.95
2017-06-29T08:06:51.935Z,19.92
2017-06-29T08:07:17.435Z,19.94
2017-06-29T08:07:42.907Z,19.95
2017-06-29T08:08:08.381Z,19.92
2017-06-29T08:08:33.885Z,19.99
2017-06-29T08:08:59.348Z,19.89
2017-06-29T08:09:24.789Z,19.85
2017-06-29T08:09:50.264Z,19.86
2017-06-29T08:10:15.783Z,19.84
2017-06-29T08:10:41.218Z,19.88
2017-06-29T08:11:06.693Z,19.84
2017-06-29T08:11:32.150Z,19.94
2017-06-29T08:11:57.620Z,19.91
2017-06-29T08:12:23.081Z,19.95
2017-06-29T08:12:48.569Z,19.99
2017-06-29T08:13:13.991Z,19.94
2017-06-29T08:13:39.461Z,19.94
2017-06-29T08:14:04.942Z,19.92
2017-06-29T08:14:30.393Z,19.95
2017-06-29T08:14:55.862Z,20
2017-06-29T08:15:21.369Z,20
2017-06-29T08:15:46.928Z,19.99
2017-06-29T08:16:12.444Z,19.99
2017-06-29T08:16:37.946Z,20.03
2017-06-29T08:17:03.376Z,19.99
2017-06-29T08:17:28.853Z,20
2017-06-29T08:17:54.393Z,19.95
2017-06-29T08:18:19.880Z,19.99
2017-06-29T08:18:45.337Z,19.95
2017-06-29T08:19:10.815Z,19.94
2017-06-29T08:19:36.287Z,19.89
2017-06-29T08:20:01.766Z,19.94
2017-06-29T08:20:27.294Z,19.91
2017-06-29T08:20:52.686Z,19.95
2017-06-29T08:21:18.161Z,19.85
2017-06-29T08:21:43.624Z,19.88
2017-06-29T08:22:09.124Z,19.85
2017-06-29T08:22:34.587Z,19.81
2017-06-29T08:23:00.059Z,19.82
2017-06-29T08:23:25.511Z,19.85
2017-06-29T08:23:50.996Z,19.77
2017-06-29T08:24:16.475Z,19.76
2017-06-29T08:24:41.967Z,19.76
2017-06-29T08:25:07.436Z,19.76
2017-06-29T08:25:32.933Z,19.73
2017-06-29T08:25:58.396Z,19.73
2017-06-29T08:26:23.877Z,19.73
2017-06-29T08:26:49.353Z,19.58
2017-06-29T08:27:14.838Z,19.56
2017-06-29T08:27:40.329Z,19.66
2017-06-29T08:28:05.788Z,19.58
2017-06-29T08:28:31.282Z,19.66
2017-06-29T08:28:56.771Z,19.55
2017-06-29T08:29:22.269Z,19.54
2017-06-29T08:29:47.764Z,19.52
2017-06-29T08:30:13.204Z,19.52
2017-06-29T08:30:38.688Z,19.49
2017-06-29T08:31:04.154Z,19.44
2017-06-29T08:31:29.626Z,19.45
2017-06-29T08:31:55.099Z,19.44
2017-06-29T08:32:20.564Z,19.29
2017-06-29T08:32:46.041Z,19.39
2017-06-29T08:33:11.535Z,19.33
2017-06-29T08:33:37.014Z,19.4
2017-06-29T08:34:02.489Z,19.4
2017-06-29T08:34:27.970Z,19.21
2017-06-29T08:34:53.429Z,19.27
2017-06-29T08:35:18.911Z,19.26
2017-06-29T08:35:44.380Z,19.29
2017-06-29T08:36:09.835Z,19.3
2017-06-29T08:36:35.292Z,19.36
2017-06-29T08:37:00.809Z,19.37
2017-06-29T08:37:26.315Z,19.19
2017-06-29T08:37:51.761Z,19.37
2017-06-29T08:38:17.220Z,19.19
2017-06-29T08:38:42.695Z,19.27
2017-06-29T08:39:08.217Z,19.37
2017-06-29T08:39:33.671Z,19.21
2017-06-29T08:39:59.135Z,19.19
2017-06-29T08:40:24.606Z,19.27
2017-06-29T08:40:50.085Z,19.27
2017-06-29T08:41:15.577Z,19.3
2017-06-29T08:41:41.082Z,19.27
2017-06-29T08:42:06.540Z,19.31
2017-06-29T08:42:32.040Z,19.26
2017-06-29T08:42:57.521Z,19.4
2017-06-29T08:43:22.992Z,19.37
2017-06-29T08:43:48.464Z,19.36
2017-06-29T08:44:13.929Z,19.41
2017-06-29T08:44:39.370Z,19.4
2017-06-29T08:45:04.832Z,19.33
2017-06-29T08:45:30.276Z,19.39
2017-06-29T08:45:55.756Z,19.48
2017-06-29T08:46:21.242Z,19.47
2017-06-29T08:46:46.707Z,19.39
2017-06-29T08:47:12.170Z,19.44
2017-06-29T08:47:37.610Z,19.41
2017-06-29T08:48:03.110Z,19.44
2017-06-29T08:48:28.584Z,19.51
2017-06-29T08:48:54.038Z,19.55
2017-06-29T08:49:19.528Z,19.52
2017-06-29T08:49:45.022Z,19.55
2017-06-29T08:50:10.479Z,19.56
2017-06-29T08:50:35.976Z,19.48
2017-06-29T08:51:01.423Z,19.59
2017-06-29T08:51:26.899Z,19.56
2017-06-29T08:51:52.369Z,19.63
2017-06-29T08:52:17.837Z,19.58
2017-06-29T08:52:43.315Z,19.74
2017-06-29T08:53:08.798Z,19.69
2017-06-29T08:53:34.330Z,19.79
2017-06-29T08:53:59.748Z,19.79
2017-06-29T08:54:25.234Z,19.81
2017-06-29T08:54:50.688Z,19.89
2017-06-29T08:55:16.155Z,19.92
2017-06-29T08:55:41.646Z,20.02
2017-06-29T08:56:07.120Z,19.99
2017-06-29T08:56:32.638Z,20.07
2017-06-29T08:56:58.053Z,20.07
2017-06-29T08:57:23.539Z,20.1
2017-06-29T08:57:49.010Z,20.13
2017-06-29T08:58:14.464Z,20.16
2017-06-29T08:58:39.919Z,20.07
2017-06-29T08:59:05.371Z,20.16
2017-06-29T08:59:30.832Z,20.31
2017-06-29T08:59:56.288Z,20.26
2017-06-29T09:00:21.769Z,20.36
2017-06-29T09:00:47.268Z,20.34
2017-06-29T09:01:12.727Z,20.37
2017-06-29T09:01:38.231Z,20.41
2017-06-29T09:02:03.701Z,20.47
2017-06-29T09:02:29.141Z,20.44
2017-06-29T09:02:54.615Z,20.47
2017-06-29T09:03:20.096Z,20.51
2017-06-29T09:03:45.574Z,20.5
2017-06-29T09:04:11.016Z,20.51
2017-06-29T09:04:36.495Z,20.51
2017-06-29T09:05:01.952Z,20.56
2017-06-29T09:05:27.407Z,20.55
2017-06-29T09:05:52.910Z,20.55
2017-06-29T09:06:18.363Z,20.5
2017-06-29T09:06:43.788Z,20.48
2017-06-29T09:07:09.269Z,20.44
2017-06-29T09:07:34.715Z,20.43
2017-06-29T09:08:00.175Z,20.39
2017-06-29T09:08:25.659Z,20.4
2017-06-29T09:08:51.113Z,20.26
2017-06-29T09:09:16.569Z,20.34
2017-06-29T09:09:42.052Z,20.29
2017-06-29T09:10:07.541Z,20.29
2017-06-29T09:10:32.999Z,20.14
2017-06-29T09:10:58.459Z,20.16
2017-06-29T09:11:23.939Z,20.14
2017-06-29T09:11:49.423Z,20.07
2017-06-29T09:12:14.897Z,20.09
2017-06-29T09:12:40.351Z,20.04
2017-06-29T09:13:05.835Z,19.95
2017-06-29T09:13:31.304Z,20.04
2017-06-29T09:13:56.816Z,19.96
2017-06-29T09:14:22.255Z,19.92
2017-06-29T09:14:47.721Z,19.86
2017-06-29T09:15:13.251Z,19.88
2017-06-29T09:15:38.670Z,19.84
2017-06-29T09:16:04.162Z,19.79
2017-06-29T09:16:29.593Z,19.81
2017-06-29T09:16:55.055Z,19.88
2017-06-29T09:17:20.514Z,19.74
2017-06-29T09:17:45.980Z,19.82
2017-06-29T09:18:11.457Z,19.79
2017-06-29T09:18:36.908Z,19.73
2017-06-29T09:19:02.371Z,19.71
2017-06-29T09:19:27.836Z,19.71
2017-06-29T09:19:53.309Z,19.77
2017-06-29T09:20:18.787Z,19.76
2017-06-29T09:20:44.245Z,19.76
2017-06-29T09:21:09.727Z,19.71
2017-06-29T09:21:35.189Z,19.7
2017-06-29T09:22:00.656Z,19.7
2017-06-29T09:22:26.134Z,19.69
2017-06-29T09:22:51.588Z,19.73
2017-06-29T09:23:17.058Z,19.71
2017-06-29T09:23:42.573Z,19.71
2017-06-29T09:24:07.994Z,19.77
2017-06-29T09:24:33.461Z,19.74
2017-06-29T09:24:58.942Z,19.74
2017-06-29T09:25:24.400Z,19.77
2017-06-29T09:25:49.854Z,19.74
2017-06-29T09:26:15.330Z,19.69
2017-06-29T09:26:40.767Z,19.81
2017-06-29T09:27:06.229Z,19.84
2017-06-29T09:27:31.693Z,19.86
2017-06-29T09:27:57.172Z,19.85
2017-06-29T09:28:22.632Z,19.92
2017-06-29T09:28:48.112Z,19.89
2017-06-29T09:29:13.575Z,19.99
2017-06-29T09:29:39.039Z,19.96